Severance, NY (12872)

6:50 AM EDT on October 02, 2014 (GMT -0400)
KNYSCHRO2 | Change Station
CLOSE
Current Station
Personal Weather Station
Location: Schroon Lake, NY
Elevation: 866 ft
Nearby Weather Stations

Elev 866 ft 43.84 °N, 73.76 °W | Updated 18 seconds ago

Overcast
Overcast
55.2 °F
Feels Like 55.2 °F
N
0.0
Wind Variable Wind from NW
Gusts 0.0 mph

Today
High -- | Low -- °F
--% Chance of Precip.
Yesterday
High -- | Low -- °F
Precip. -- in
6:53 AM 6:34 PM
First Quarter, 57% visible
Pressure 30.16 in
Visibility 7.0 miles
Clouds Overcast 300 ft
Dew Point 54 °F
Humidity 97%
Rainfall 0.00 in
Snow Depth Not available.
UV 0 out of 12
Pollen 1.50 out of 12
Air Quality Not available.
Flu Activity Not available.
METAR K6B0 021035Z AUTO 00000KT 7SM OVC003 13/13 A3016 RMK AO2 T01300130

More Conditions Fewer Conditions

Pressure 30.16 in
Visibility 7.0 miles
Clouds Overcast 300 ft
Dew Point 54 °F
Humidity 97%
Rainfall 0.00 in
Snow Depth Not available.
UV 0 out of 12
Pollen 1.50 out of 12
Air Quality Not available.
Flu Activity Not available.
METAR K6B0 021035Z AUTO 00000KT 7SM OVC003 13/13 A3016 RMK AO2 T01300130

More Conditions Fewer Conditions

10-Day Weather Forecast

Almanac

Astronomy

Oct. 02, 2014 Rise Set
Actual Time 6:53 AM EDT 6:34 PM EDT
Civil Twilight 6:24 AM EDT 7:02 PM EDT
Nautical Twilight 5:51 AM EDT 7:36 PM EDT
Astronomical Twilight 5:17 AM EDT 8:09 PM EDT
Moon 2:48 PM EDT No Moon Set
Length of Visible Light 12h 37m
Length of Day
11h 40m
Tomorrow will be 3m 0s shorter.
First Quarter, 57% of the Moon is Illuminated
Today
First Quarter
Oct 8
Full
Oct 15
Last Quarter
Oct 23
New
Oct 30
First Quarter

Today's Extremes

State Highs State Lows

Community

WunderPhotos

Upload Photos

1,758,210 photos uploaded!

WunderBlogs® & News

Nearby

Air Quality

  Air Quality AQ Index Pollutant
Thursday Good
PM2.5

Snow Depth

Station Depth Elevation
No new snow has been reported.

Earthquake Activity

City Distance Mag. Time & Date
No recent earthquake activity has been reported nearby.
Minimum magnitude displayed is 2.5.

Coastal Water Temperatures

Place Temperature
No Stations Reporting

Nearby Weather Stations